createdAt,value
2023-03-12T00:00:13.903Z,-0.74
2023-03-12T00:02:41.279Z,-0.75
2023-03-12T00:05:08.813Z,-0.73
2023-03-12T00:07:36.814Z,-0.76
2023-03-12T00:10:05.291Z,-0.76
2023-03-12T00:12:32.891Z,-0.72
2023-03-12T00:15:00.240Z,-0.72
2023-03-12T00:17:29.311Z,-0.70
2023-03-12T00:19:56.566Z,-0.70
2023-03-12T00:22:24.086Z,-0.70
2023-03-12T00:24:55.548Z,-0.73
2023-03-12T00:27:23.476Z,-0.72
2023-03-12T00:29:51.025Z,-0.78
2023-03-12T00:32:18.434Z,-0.75
2023-03-12T00:34:50.548Z,-0.76
2023-03-12T00:37:17.943Z,-0.75
2023-03-12T00:39:45.220Z,-0.74
2023-03-12T00:42:12.738Z,-0.73
2023-03-12T00:44:40.137Z,-0.77
2023-03-12T00:47:07.676Z,-0.74
2023-03-12T00:49:35.261Z,-0.74
2023-03-12T00:52:02.820Z,-0.75
2023-03-12T00:54:30.070Z,-0.75
2023-03-12T00:56:57.539Z,-0.80
2023-03-12T00:59:25.148Z,-0.84
2023-03-12T01:01:52.441Z,-0.87
2023-03-12T01:04:19.714Z,-0.90
2023-03-12T01:06:47.045Z,-0.96
2023-03-12T01:09:14.300Z,-0.97
2023-03-12T01:11:41.775Z,-0.98
2023-03-12T01:14:09.653Z,-0.97
2023-03-12T01:16:37.023Z,-0.99
2023-03-12T01:19:05.029Z,-1.01
2023-03-12T01:21:32.828Z,-1.04
2023-03-12T01:24:00.251Z,-1.04
2023-03-12T01:26:27.774Z,-1.03
2023-03-12T01:28:55.826Z,-1.06
2023-03-12T01:31:23.397Z,-1.07
2023-03-12T01:33:51.972Z,-1.03
2023-03-12T01:36:20.778Z,-1.06
2023-03-12T01:38:48.301Z,-1.06
2023-03-12T01:41:15.604Z,-1.05
2023-03-12T01:43:43.510Z,-1.07
2023-03-12T01:46:17.401Z,-1.06
2023-03-12T01:48:57.346Z,-1.13
2023-03-12T01:51:27.352Z,-1.14
2023-03-12T01:53:57.540Z,-1.16
2023-03-12T01:56:27.240Z,-1.13
2023-03-12T01:58:56.438Z,-1.13
2023-03-12T02:01:25.451Z,-1.13
2023-03-12T02:03:55.747Z,-1.16
2023-03-12T02:06:33.564Z,-1.14
2023-03-12T02:09:01.925Z,-1.15
2023-03-12T02:11:30.132Z,-1.15
2023-03-12T02:13:57.836Z,-1.16
2023-03-12T02:16:26.986Z,-1.17
2023-03-12T02:18:55.493Z,-1.16
2023-03-12T02:21:30.880Z,-1.16
2023-03-12T02:23:58.181Z,-1.16
2023-03-12T02:26:28.683Z,-1.14
2023-03-12T02:29:01.255Z,-1.10
2023-03-12T02:31:32.031Z,-1.10
2023-03-12T02:34:01.000Z,-1.10
2023-03-12T02:36:28.429Z,-1.11
2023-03-12T02:38:56.904Z,-1.11
2023-03-12T02:41:27.540Z,-1.08
2023-03-12T02:44:06.296Z,-1.07
2023-03-12T02:46:36.477Z,-1.10
2023-03-12T02:49:04.105Z,-1.04
2023-03-12T02:51:31.622Z,-1.01
2023-03-12T02:53:58.984Z,-0.94
2023-03-12T02:56:26.969Z,-0.72
2023-03-12T02:58:54.577Z,-0.45
2023-03-12T03:01:23.294Z,-0.17
2023-03-12T03:03:50.777Z,0.05
2023-03-12T03:06:18.461Z,0.19
2023-03-12T03:08:45.798Z,0.26
2023-03-12T03:11:13.335Z,0.27
2023-03-12T03:13:41.399Z,0.26
2023-03-12T03:16:08.966Z,0.24
2023-03-12T03:18:36.352Z,0.21
2023-03-12T03:21:08.262Z,0.22
2023-03-12T03:23:37.455Z,0.22
2023-03-12T03:26:04.934Z,0.26
2023-03-12T03:28:32.448Z,0.39
2023-03-12T03:31:02.083Z,0.62
2023-03-12T03:33:34.202Z,1.05
2023-03-12T03:36:02.427Z,1.57
2023-03-12T03:38:32.503Z,2.18
2023-03-12T03:41:00.164Z,2.81
2023-03-12T03:43:27.941Z,3.52
2023-03-12T03:46:03.088Z,4.15
2023-03-12T03:48:33.942Z,4.90
2023-03-12T03:51:02.344Z,5.54
2023-03-12T03:53:32.826Z,6.14
2023-03-12T03:56:05.467Z,6.75
2023-03-12T03:58:33.225Z,7.51
2023-03-12T04:01:00.673Z,8.00
2023-03-12T04:03:28.123Z,8.61
2023-03-12T04:05:57.070Z,9.22
2023-03-12T04:08:24.514Z,9.79
2023-03-12T04:13:37.476Z,10.96
2023-03-12T04:16:05.627Z,11.41
2023-03-12T04:18:33.174Z,11.90
2023-03-12T04:21:01.457Z,12.41
2023-03-12T04:23:28.891Z,12.89
2023-03-12T04:25:56.802Z,13.42
2023-03-12T04:28:24.137Z,13.84
2023-03-12T04:30:55.507Z,14.27
2023-03-12T04:33:22.964Z,14.70
2023-03-12T04:35:54.056Z,14.99
2023-03-12T04:38:22.718Z,15.40
2023-03-12T04:41:08.340Z,15.79
2023-03-12T04:43:38.413Z,16.27
2023-03-12T04:46:06.539Z,16.67
2023-03-12T04:48:34.844Z,17.05
2023-03-12T04:51:02.564Z,17.34
2023-03-12T04:53:29.970Z,17.76
2023-03-12T04:55:59.683Z,18.02
2023-03-12T04:58:28.402Z,18.36
2023-03-12T05:00:55.766Z,18.75
2023-03-12T05:03:23.546Z,18.92
2023-03-12T05:05:51.194Z,19.00
2023-03-12T05:08:18.856Z,19.22
2023-03-12T05:10:46.363Z,19.55
2023-03-12T05:13:17.660Z,19.84
2023-03-12T05:15:46.448Z,20.19
2023-03-12T05:18:15.056Z,20.37
2023-03-12T05:20:42.485Z,20.58
2023-03-12T05:23:10.341Z,20.71
2023-03-12T05:25:41.157Z,21.20
2023-03-12T05:28:09.032Z,21.56
2023-03-12T05:30:39.827Z,21.66
2023-03-12T05:33:07.318Z,21.77
2023-03-12T05:35:34.728Z,21.92
2023-03-12T05:38:02.824Z,22.24
2023-03-12T05:40:30.448Z,22.36
2023-03-12T05:42:57.851Z,22.46
2023-03-12T05:45:27.122Z,22.38
2023-03-12T05:47:56.435Z,22.47
2023-03-12T05:50:24.218Z,22.48
2023-03-12T05:52:52.497Z,22.60
2023-03-12T05:55:20.235Z,22.59
2023-03-12T05:57:47.640Z,22.69
2023-03-12T06:00:15.673Z,22.82
2023-03-12T06:02:51.542Z,22.88
2023-03-12T06:05:19.578Z,23.04
2023-03-12T06:07:47.137Z,23.04
2023-03-12T06:10:14.538Z,22.90
2023-03-12T06:12:41.942Z,22.79
2023-03-12T06:15:10.034Z,22.74
2023-03-12T06:17:37.682Z,22.67
2023-03-12T06:20:05.777Z,22.71
2023-03-12T06:22:33.256Z,22.75
2023-03-12T06:25:00.573Z,22.79
2023-03-12T06:27:29.429Z,22.86
2023-03-12T06:29:56.872Z,23.02
2023-03-12T06:32:24.225Z,23.21
2023-03-12T06:34:51.584Z,23.48
2023-03-12T06:37:19.375Z,23.67
2023-03-12T06:39:47.923Z,23.90
2023-03-12T06:42:15.944Z,23.94
2023-03-12T06:44:43.658Z,24.12
2023-03-12T06:47:11.559Z,24.20
2023-03-12T06:49:40.731Z,24.53
2023-03-12T06:52:09.645Z,24.53
2023-03-12T06:54:37.132Z,24.45
2023-03-12T06:57:05.090Z,24.47
2023-03-12T06:59:32.950Z,24.33
2023-03-12T07:02:00.895Z,23.95
2023-03-12T07:04:28.748Z,23.75
2023-03-12T07:06:56.146Z,23.61
2023-03-12T07:09:23.564Z,23.63
2023-03-12T07:11:51.013Z,23.70
2023-03-12T07:14:20.425Z,23.70
2023-03-12T07:16:48.246Z,23.66
2023-03-12T07:19:15.947Z,23.58
2023-03-12T07:21:43.218Z,23.45
2023-03-12T07:24:10.737Z,23.35
2023-03-12T07:26:38.025Z,23.29
2023-03-12T07:29:05.483Z,23.15
2023-03-12T07:31:32.955Z,22.74
2023-03-12T07:34:03.516Z,22.65
2023-03-12T07:36:31.131Z,22.38
2023-03-12T07:38:58.782Z,22.18
2023-03-12T07:41:26.177Z,22.14
2023-03-12T07:43:53.509Z,21.92
2023-03-12T07:46:20.941Z,21.01
2023-03-12T07:48:48.733Z,21.01
2023-03-12T07:51:16.099Z,21.02
2023-03-12T07:53:43.475Z,20.60
2023-03-12T07:56:10.771Z,20.32
2023-03-12T07:58:39.510Z,19.71
2023-03-12T08:01:07.174Z,18.73
2023-03-12T08:03:34.673Z,18.70
2023-03-12T08:06:03.670Z,18.48
2023-03-12T08:08:31.736Z,18.59
2023-03-12T08:10:59.727Z,18.65
2023-03-12T08:13:27.124Z,17.80
2023-03-12T08:15:54.677Z,17.39
2023-03-12T08:18:22.528Z,15.15
2023-03-12T08:20:53.836Z,14.18
2023-03-12T08:23:21.898Z,13.69
2023-03-12T08:25:49.949Z,12.95
2023-03-12T08:28:17.701Z,11.57
2023-03-12T08:30:49.091Z,11.21
2023-03-12T08:33:16.886Z,11.29
2023-03-12T08:35:44.319Z,11.14
2023-03-12T08:38:12.053Z,9.88
2023-03-12T08:40:39.469Z,9.13
2023-03-12T08:43:07.953Z,8.54
2023-03-12T08:45:38.668Z,8.34
2023-03-12T08:48:06.944Z,8.62
2023-03-12T08:50:34.406Z,8.26
2023-03-12T08:53:01.866Z,7.69
2023-03-12T08:55:31.699Z,7.07
2023-03-12T08:57:59.172Z,7.31
2023-03-12T09:00:26.650Z,6.97
2023-03-12T09:02:54.609Z,6.98
2023-03-12T09:05:22.124Z,6.80
2023-03-12T09:07:50.525Z,6.29
2023-03-12T09:10:18.060Z,6.23
2023-03-12T09:12:45.538Z,6.42
2023-03-12T09:15:12.934Z,6.05
2023-03-12T09:17:40.391Z,6.40
2023-03-12T09:20:09.244Z,6.16
2023-03-12T09:22:37.569Z,6.02
2023-03-12T09:25:06.094Z,5.92
2023-03-12T09:27:41.632Z,5.54
2023-03-12T09:30:11.017Z,5.50
2023-03-12T09:32:38.571Z,5.68
2023-03-12T09:35:06.902Z,5.74
2023-03-12T09:37:34.874Z,5.57
2023-03-12T09:40:02.391Z,5.37
2023-03-12T09:42:53.269Z,5.05
2023-03-12T09:45:23.111Z,5.01
2023-03-12T09:47:54.773Z,4.87
2023-03-12T09:50:28.357Z,4.70
2023-03-12T09:52:58.820Z,4.70
2023-03-12T09:55:27.644Z,4.57
2023-03-12T09:57:55.933Z,4.16
2023-03-12T10:00:26.671Z,4.17
2023-03-12T10:03:11.095Z,4.51
2023-03-12T10:05:38.435Z,4.20
2023-03-12T10:08:32.153Z,4.10
2023-03-12T10:11:09.016Z,4.28
2023-03-12T10:13:39.131Z,3.92
2023-03-12T10:16:22.656Z,3.81
2023-03-12T10:18:50.132Z,3.65
2023-03-12T10:21:20.125Z,3.51
2023-03-12T10:24:05.764Z,3.90
2023-03-12T10:26:44.375Z,3.99
2023-03-12T10:29:16.495Z,4.06
2023-03-12T10:32:07.262Z,3.29
2023-03-12T10:34:43.648Z,3.32
2023-03-12T10:37:17.768Z,3.50
2023-03-12T10:39:45.341Z,3.13
2023-03-12T10:42:18.024Z,3.23
2023-03-12T10:44:47.130Z,2.93
2023-03-12T10:47:32.752Z,2.92
2023-03-12T10:50:15.622Z,2.65
2023-03-12T10:52:43.694Z,2.74
2023-03-12T10:55:12.443Z,2.84
2023-03-12T10:57:41.214Z,2.72
2023-03-12T11:00:12.652Z,2.89
2023-03-12T11:02:46.105Z,3.05
2023-03-12T11:05:42.900Z,2.97
2023-03-12T11:08:20.424Z,2.99
2023-03-12T11:10:48.228Z,3.19
2023-03-12T11:13:29.697Z,2.92
2023-03-12T11:15:58.368Z,3.33
2023-03-12T11:18:38.295Z,3.01
2023-03-12T11:21:09.547Z,2.96
2023-03-12T11:23:43.442Z,3.24
2023-03-12T11:26:14.707Z,2.62
2023-03-12T11:28:44.196Z,2.19
2023-03-12T11:31:26.069Z,2.45
2023-03-12T11:33:54.869Z,2.10
2023-03-12T11:36:48.555Z,2.50
2023-03-12T11:39:34.672Z,2.51
2023-03-12T11:42:08.689Z,2.04
2023-03-12T11:44:54.964Z,2.00
2023-03-12T11:47:25.432Z,1.97
2023-03-12T11:49:58.675Z,1.93
2023-03-12T11:52:48.533Z,2.02
2023-03-12T11:55:22.948Z,2.32
2023-03-12T11:57:57.577Z,2.34
2023-03-12T12:00:44.561Z,2.39
2023-03-12T12:03:31.491Z,2.25
2023-03-12T12:06:22.978Z,2.09
2023-03-12T12:09:14.708Z,1.70
2023-03-12T12:11:45.670Z,1.70
2023-03-12T12:14:17.325Z,1.60
2023-03-12T12:17:02.377Z,1.72
2023-03-12T12:19:41.753Z,1.53
2023-03-12T12:22:18.389Z,1.86
2023-03-12T12:24:56.835Z,2.09
2023-03-12T12:27:29.309Z,1.79
2023-03-12T12:30:11.836Z,2.21
2023-03-12T12:32:45.252Z,2.07
2023-03-12T12:35:25.711Z,1.97
2023-03-12T12:37:56.070Z,1.79
2023-03-12T12:40:30.316Z,1.55
2023-03-12T12:43:17.819Z,1.66
2023-03-12T12:45:47.338Z,1.95
2023-03-12T12:48:38.062Z,1.91
2023-03-12T12:51:08.768Z,1.33
2023-03-12T12:53:49.375Z,1.48
2023-03-12T12:56:34.452Z,1.26
2023-03-12T12:59:06.204Z,1.43
2023-03-12T13:01:35.648Z,1.49
2023-03-12T13:04:06.924Z,1.66
2023-03-12T13:06:54.205Z,1.62
2023-03-12T13:09:23.486Z,1.66
2023-03-12T13:11:52.049Z,1.32
2023-03-12T13:14:21.038Z,1.34
2023-03-12T13:16:50.732Z,1.20
2023-03-12T13:19:19.593Z,0.88
2023-03-12T13:21:54.543Z,1.17
2023-03-12T13:24:21.967Z,1.01
2023-03-12T13:27:09.015Z,1.17
2023-03-12T13:29:38.504Z,1.18
2023-03-12T13:32:09.461Z,0.99
2023-03-12T13:34:46.100Z,0.64
2023-03-12T13:37:32.308Z,0.37
2023-03-12T13:40:02.242Z,0.66
2023-03-12T13:42:40.822Z,0.39
2023-03-12T13:45:25.347Z,0.57
2023-03-12T13:47:55.286Z,0.02
2023-03-12T13:50:22.715Z,0.39
2023-03-12T13:52:55.535Z,0.48
2023-03-12T13:55:26.987Z,0.64
2023-03-12T13:57:59.421Z,0.32
2023-03-12T14:00:32.101Z,0.38
2023-03-12T14:03:06.711Z,0.15
2023-03-12T14:05:44.428Z,0.33
2023-03-12T14:08:18.204Z,0.61
2023-03-12T14:11:03.959Z,0.51
2023-03-12T14:13:34.362Z,0.16
2023-03-12T14:16:17.037Z,-0.12
2023-03-12T14:18:45.368Z,-0.06
2023-03-12T14:21:15.838Z,-0.48
2023-03-12T14:23:49.807Z,-0.58
2023-03-12T14:26:21.799Z,-0.74
2023-03-12T14:28:51.793Z,-0.88
2023-03-12T14:31:21.780Z,-0.98
2023-03-12T14:33:53.876Z,-0.91
2023-03-12T14:36:23.458Z,-1.05
2023-03-12T14:38:50.845Z,-1.14
2023-03-12T14:41:36.312Z,-1.32
2023-03-12T14:44:18.075Z,-1.09
2023-03-12T14:46:56.028Z,-1.34
2023-03-12T14:49:23.491Z,-1.32
2023-03-12T14:51:51.163Z,-1.07
2023-03-12T14:54:19.798Z,-1.10
2023-03-12T14:56:47.286Z,-1.31
2023-03-12T14:59:22.742Z,-1.43
2023-03-12T15:01:50.275Z,-1.29
2023-03-12T15:04:19.941Z,-1.25
2023-03-12T15:06:47.315Z,-1.30
2023-03-12T15:09:18.319Z,-1.33
2023-03-12T15:11:51.795Z,-1.09
2023-03-12T15:14:19.678Z,-1.34
2023-03-12T15:16:47.122Z,-1.06
2023-03-12T15:19:17.027Z,-1.24
2023-03-12T15:21:45.168Z,-1.34
2023-03-12T15:24:13.799Z,-1.49
2023-03-12T15:26:41.781Z,-1.59
2023-03-12T15:29:16.620Z,-1.64
2023-03-12T15:31:46.446Z,-1.48
2023-03-12T15:34:20.999Z,-1.44
2023-03-12T15:36:49.727Z,-1.30
2023-03-12T15:39:28.393Z,-1.75
2023-03-12T15:41:56.989Z,-1.53
2023-03-12T15:44:26.382Z,-1.65
2023-03-12T15:46:55.271Z,-1.35
2023-03-12T15:49:33.105Z,-1.62
2023-03-12T15:52:00.640Z,-1.79
2023-03-12T15:54:29.194Z,-1.60
2023-03-12T15:57:11.936Z,-1.77
2023-03-12T15:59:39.343Z,-1.83
2023-03-12T16:02:11.493Z,-1.64
2023-03-12T16:04:38.794Z,-1.70
2023-03-12T16:07:10.888Z,-1.37
2023-03-12T16:09:43.679Z,-1.43
2023-03-12T16:12:11.239Z,-1.33
2023-03-12T16:14:38.718Z,-1.59
2023-03-12T16:17:11.194Z,-1.58
2023-03-12T16:19:38.615Z,-1.42
2023-03-12T16:22:06.066Z,-1.26
2023-03-12T16:24:33.502Z,-1.39
2023-03-12T16:27:01.547Z,-1.56
2023-03-12T16:29:37.421Z,-1.69
2023-03-12T16:32:11.380Z,-1.68
2023-03-12T16:34:38.806Z,-1.58
2023-03-12T16:37:10.759Z,-1.73
2023-03-12T16:39:38.158Z,-1.65
2023-03-12T16:42:13.327Z,-1.75
2023-03-12T16:44:41.338Z,-1.66
2023-03-12T16:47:12.303Z,-1.54
2023-03-12T16:49:39.868Z,-1.57
2023-03-12T16:52:28.711Z,-2.02
2023-03-12T16:54:56.315Z,-1.82
2023-03-12T16:57:35.544Z,-2.09
2023-03-12T17:00:08.133Z,-2.20
2023-03-12T17:02:40.434Z,-2.17
2023-03-12T17:05:08.026Z,-2.16
2023-03-12T17:07:35.986Z,-2.00
2023-03-12T17:10:03.278Z,-1.88
2023-03-12T17:12:32.101Z,-2.20
2023-03-12T17:15:00.731Z,-1.92
2023-03-12T17:17:28.937Z,-1.73
2023-03-12T17:19:56.863Z,-1.79
2023-03-12T17:22:25.239Z,-2.02
2023-03-12T17:24:52.645Z,-1.84
2023-03-12T17:27:20.402Z,-2.08
2023-03-12T17:29:47.826Z,-2.28
2023-03-12T17:32:15.091Z,-1.86
2023-03-12T17:34:42.639Z,-1.92
2023-03-12T17:37:10.160Z,-1.78
2023-03-12T17:39:37.398Z,-1.92
2023-03-12T17:42:04.885Z,-2.09
2023-03-12T17:44:34.904Z,-2.26
2023-03-12T17:47:02.527Z,-2.37
2023-03-12T17:49:30.253Z,-2.43
2023-03-12T17:51:57.757Z,-2.43
2023-03-12T17:54:25.170Z,-2.26
2023-03-12T17:56:52.484Z,-2.28
2023-03-12T17:59:19.764Z,-2.07
2023-03-12T18:01:47.113Z,-2.31
2023-03-12T18:04:16.073Z,-2.55
2023-03-12T18:06:43.345Z,-2.36
2023-03-12T18:09:10.730Z,-2.22
2023-03-12T18:11:38.122Z,-2.30
2023-03-12T18:14:05.655Z,-2.20
2023-03-12T18:16:33.191Z,-1.81
2023-03-12T18:19:00.553Z,-1.56
2023-03-12T18:21:27.848Z,-1.57
2023-03-12T18:23:57.467Z,-1.58
2023-03-12T18:26:26.780Z,-1.44
2023-03-12T18:28:55.217Z,-1.26
2023-03-12T18:31:22.605Z,-1.49
2023-03-12T18:33:49.861Z,-1.50
2023-03-12T18:36:17.274Z,-1.43
2023-03-12T18:38:44.803Z,-1.82
2023-03-12T18:41:13.233Z,-1.58
2023-03-12T18:43:41.235Z,-2.04
2023-03-12T18:46:09.155Z,-1.58
2023-03-12T18:48:36.547Z,-1.56
2023-03-12T18:51:03.927Z,-1.63
2023-03-12T18:53:33.496Z,-2.05
2023-03-12T18:56:00.871Z,-2.22
2023-03-12T18:58:28.473Z,-1.91
2023-03-12T19:00:56.534Z,-2.11
2023-03-12T19:03:24.290Z,-2.04
2023-03-12T19:06:05.515Z,-1.84
2023-03-12T19:08:32.906Z,-1.97
2023-03-12T19:11:00.186Z,-1.69
2023-03-12T19:13:27.477Z,-2.25
2023-03-12T19:15:59.797Z,-2.28
2023-03-12T19:18:27.535Z,-2.57
2023-03-12T19:20:55.295Z,-2.62
2023-03-12T19:23:23.640Z,-2.66
2023-03-12T19:25:50.898Z,-2.86
2023-03-12T19:28:18.214Z,-2.90
2023-03-12T19:30:45.599Z,-2.87
2023-03-12T19:33:13.152Z,-3.06
2023-03-12T19:35:41.226Z,-2.69
2023-03-12T19:38:09.127Z,-2.20
2023-03-12T19:40:36.536Z,-2.36
2023-03-12T19:43:03.990Z,-2.59
2023-03-12T19:45:31.403Z,-2.42
2023-03-12T19:47:58.726Z,-2.46
2023-03-12T19:50:26.182Z,-2.41
2023-03-12T19:52:53.564Z,-2.21
2023-03-12T19:55:20.945Z,-1.97
2023-03-12T19:57:48.293Z,-2.34
2023-03-12T20:00:15.997Z,-2.56
2023-03-12T20:02:43.418Z,-2.71
2023-03-12T20:05:10.825Z,-2.44
2023-03-12T20:07:38.302Z,-2.39
2023-03-12T20:10:06.167Z,-2.42
2023-03-12T20:12:33.465Z,-2.33
2023-03-12T20:15:00.900Z,-2.25
2023-03-12T20:17:28.215Z,-2.07
2023-03-12T20:19:56.303Z,-2.48
2023-03-12T20:22:28.081Z,-2.69
2023-03-12T20:24:55.592Z,-2.38
2023-03-12T20:27:22.951Z,-2.80
2023-03-12T20:29:51.159Z,-2.54
2023-03-12T20:32:21.691Z,-2.67
2023-03-12T20:34:49.016Z,-2.14
2023-03-12T20:37:16.257Z,-2.11
2023-03-12T20:39:43.689Z,-2.22
2023-03-12T20:42:10.874Z,-2.29
2023-03-12T20:44:38.173Z,-2.31
2023-03-12T20:47:05.555Z,-2.30
2023-03-12T20:49:32.923Z,-2.32
2023-03-12T20:52:00.524Z,-2.33
2023-03-12T20:54:27.986Z,-2.64
2023-03-12T20:56:55.300Z,-2.88
2023-03-12T20:59:22.537Z,-2.43
2023-03-12T21:01:49.801Z,-2.26
2023-03-12T21:04:17.132Z,-2.48
2023-03-12T21:06:45.414Z,-2.63
2023-03-12T21:09:13.750Z,-2.61
2023-03-12T21:11:41.251Z,-2.34
2023-03-12T21:14:08.747Z,-2.29
2023-03-12T21:16:36.992Z,-2.42
2023-03-12T21:19:04.427Z,-2.21
2023-03-12T21:21:32.405Z,-2.50
2023-03-12T21:24:00.831Z,-2.55
2023-03-12T21:26:28.172Z,-2.39
2023-03-12T21:28:55.523Z,-2.50
2023-03-12T21:31:23.093Z,-2.32
2023-03-12T21:33:50.438Z,-2.48
2023-03-12T21:36:17.863Z,-2.30
2023-03-12T21:38:45.147Z,-2.34
2023-03-12T21:41:13.762Z,-2.46
2023-03-12T21:43:41.145Z,-2.29
2023-03-12T21:46:09.815Z,-2.55
2023-03-12T21:48:37.498Z,-2.75
2023-03-12T21:51:06.164Z,-2.38
2023-03-12T21:53:33.664Z,-2.43
2023-03-12T21:56:02.523Z,-2.47
2023-03-12T21:58:30.788Z,-2.65
2023-03-12T22:01:11.671Z,-2.94
2023-03-12T22:03:40.127Z,-2.55
2023-03-12T22:06:08.108Z,-2.51
2023-03-12T22:08:35.978Z,-2.29
2023-03-12T22:11:03.896Z,-2.11
2023-03-12T22:13:31.373Z,-2.01
2023-03-12T22:16:00.067Z,-2.48
2023-03-12T22:18:28.098Z,-2.45
2023-03-12T22:20:56.419Z,-2.58
2023-03-12T22:23:24.244Z,-2.34
2023-03-12T22:25:51.981Z,-2.62
2023-03-12T22:28:19.681Z,-2.47
2023-03-12T22:30:47.462Z,-2.52
2023-03-12T22:33:14.989Z,-2.43
2023-03-12T22:35:46.373Z,-2.22
2023-03-12T22:38:13.725Z,-2.35
2023-03-12T22:40:41.322Z,-2.39
2023-03-12T22:43:08.624Z,-2.34
2023-03-12T22:45:35.965Z,-2.95
2023-03-12T22:48:03.403Z,-2.87
2023-03-12T22:50:30.881Z,-3.07
2023-03-12T22:52:58.585Z,-3.17
2023-03-12T22:55:25.890Z,-2.84
2023-03-12T22:57:53.340Z,-2.43
2023-03-12T23:00:24.269Z,-2.69
2023-03-12T23:02:51.557Z,-2.73
2023-03-12T23:05:18.851Z,-2.90
2023-03-12T23:07:46.277Z,-3.21
2023-03-12T23:10:13.579Z,-3.30
2023-03-12T23:12:40.904Z,-3.36
2023-03-12T23:15:08.662Z,-3.53
2023-03-12T23:17:36.065Z,-3.19
2023-03-12T23:20:04.606Z,-3.19
2023-03-12T23:22:33.214Z,-3.27
2023-03-12T23:25:00.566Z,-3.37
2023-03-12T23:27:28.905Z,-3.36
2023-03-12T23:29:56.176Z,-3.16
2023-03-12T23:32:23.531Z,-3.35
2023-03-12T23:34:50.844Z,-3.18
2023-03-12T23:37:18.366Z,-3.24
2023-03-12T23:39:54.564Z,-3.52
2023-03-12T23:42:22.396Z,-3.35
2023-03-12T23:44:49.750Z,-3.50
2023-03-12T23:47:17.062Z,-3.52
2023-03-12T23:49:44.240Z,-3.74
2023-03-12T23:52:11.489Z,-3.53
2023-03-12T23:54:38.925Z,-3.75
2023-03-12T23:57:06.240Z,-3.63
2023-03-12T23:59:33.579Z,-3.64
